createdAt,value
2022-09-26T00:00:43.347Z,49.10
2022-09-26T00:04:05.055Z,44.90
2022-09-26T00:07:06.908Z,48.90
2022-09-26T00:10:09.146Z,45.80
2022-09-26T00:13:14.170Z,51.50
2022-09-26T00:16:16.044Z,52.70
2022-09-26T00:19:18.215Z,50.00
2022-09-26T00:22:19.987Z,155.30
2022-09-26T00:25:21.835Z,132.60
2022-09-26T00:28:23.640Z,164.50
2022-09-26T00:31:29.390Z,89.20
2022-09-26T00:34:31.214Z,70.10
2022-09-26T00:37:32.998Z,67.30
2022-09-26T00:40:34.929Z,53.50
2022-09-26T00:43:39.903Z,53.20
2022-09-26T00:46:48.035Z,55.20
2022-09-26T00:49:52.351Z,55.70
2022-09-26T00:53:01.771Z,53.90
2022-09-26T00:56:07.695Z,57.10
2022-09-26T00:59:32.715Z,56.70
2022-09-26T01:02:35.547Z,55.90
2022-09-26T01:05:38.080Z,56.00
2022-09-26T01:08:43.191Z,52.50
2022-09-26T01:11:45.317Z,54.40
2022-09-26T01:14:49.099Z,52.70
2022-09-26T01:17:51.189Z,51.00
2022-09-26T01:21:11.837Z,48.90
2022-09-26T01:24:28.773Z,49.50
2022-09-26T01:27:51.059Z,50.50
2022-09-26T01:31:12.128Z,53.90
2022-09-26T01:34:28.306Z,51.20
2022-09-26T01:37:51.856Z,46.80
2022-09-26T01:41:33.098Z,53.00
2022-09-26T01:44:57.949Z,51.30
2022-09-26T01:48:09.933Z,48.60
2022-09-26T01:51:20.589Z,49.60
2022-09-26T01:54:47.089Z,49.90
2022-09-26T01:58:03.787Z,55.50
2022-09-26T02:01:10.895Z,55.80
2022-09-26T02:04:18.053Z,52.10
2022-09-26T02:07:23.604Z,49.60
2022-09-26T02:10:29.147Z,48.00
2022-09-26T02:13:37.715Z,48.80
2022-09-26T02:16:43.057Z,48.90
2022-09-26T02:19:52.246Z,49.70
2022-09-26T02:22:54.127Z,52.40
2022-09-26T02:25:55.995Z,49.10
2022-09-26T02:28:57.764Z,52.20
2022-09-26T02:32:05.993Z,52.70
2022-09-26T02:35:33.905Z,56.70
2022-09-26T02:38:37.850Z,56.00
2022-09-26T02:41:39.516Z,54.30
2022-09-26T02:44:53.239Z,55.80
2022-09-26T02:48:01.156Z,53.80
2022-09-26T02:51:18.933Z,51.10
2022-09-26T02:54:33.117Z,52.60
2022-09-26T02:57:46.160Z,52.30
2022-09-26T03:01:10.834Z,53.70
2022-09-26T03:04:19.204Z,54.70
2022-09-26T03:07:30.161Z,52.70
2022-09-26T03:10:32.514Z,49.30
2022-09-26T03:13:36.238Z,54.10
2022-09-26T03:16:40.385Z,50.20
2022-09-26T03:19:47.337Z,53.30
2022-09-26T03:22:49.698Z,58.60
2022-09-26T03:26:00.978Z,63.40
2022-09-26T03:29:03.854Z,53.30
2022-09-26T03:32:06.583Z,53.10
2022-09-26T03:35:09.364Z,85.80
2022-09-26T03:38:14.375Z,57.20
2022-09-26T03:41:16.486Z,60.60
2022-09-26T03:44:18.227Z,58.10
2022-09-26T03:47:20.079Z,62.90
2022-09-26T03:50:21.741Z,60.10
2022-09-26T03:53:23.567Z,61.10
2022-09-26T03:56:27.103Z,58.10
2022-09-26T03:59:28.984Z,59.60
2022-09-26T04:02:30.884Z,57.00
2022-09-26T04:05:32.811Z,93.00
2022-09-26T04:08:37.082Z,198.70
2022-09-26T04:11:39.579Z,118.20
2022-09-26T04:14:43.515Z,107.10
2022-09-26T04:17:45.254Z,72.40
2022-09-26T04:20:47.044Z,69.20
2022-09-26T04:23:50.478Z,171.10
2022-09-26T04:26:52.335Z,61.60
2022-09-26T04:29:54.100Z,116.50
2022-09-26T04:32:56.243Z,86.10
2022-09-26T04:36:02.388Z,61.20
2022-09-26T04:39:04.361Z,63.20
2022-09-26T04:42:07.130Z,57.40
2022-09-26T04:45:09.345Z,62.60
2022-09-26T04:48:11.130Z,61.80
2022-09-26T04:51:14.703Z,65.10
2022-09-26T04:54:16.856Z,58.50
2022-09-26T04:57:19.993Z,52.90
2022-09-26T05:00:23.435Z,47.50
2022-09-26T05:03:25.445Z,49.10
2022-09-26T05:06:27.332Z,50.20
2022-09-26T05:09:32.851Z,49.40
2022-09-26T05:12:39.689Z,49.90
2022-09-26T05:15:42.925Z,48.50
2022-09-26T05:18:56.240Z,53.70
2022-09-26T05:21:58.136Z,58.80
2022-09-26T05:25:18.794Z,67.20
2022-09-26T05:28:20.690Z,56.60
2022-09-26T05:31:25.436Z,60.70
2022-09-26T05:34:27.209Z,60.70
2022-09-26T05:37:28.969Z,59.60
2022-09-26T05:40:50.557Z,68.00
2022-09-26T05:46:56.990Z,72.00
2022-09-26T05:49:58.922Z,70.10
2022-09-26T05:53:03.044Z,73.00
2022-09-26T05:56:06.525Z,69.40
2022-09-26T05:59:09.271Z,68.70
2022-09-26T06:02:11.769Z,69.00
2022-09-26T06:05:13.592Z,67.00
2022-09-26T06:08:17.536Z,68.10
2022-09-26T06:11:46.835Z,67.70
2022-09-26T06:14:48.655Z,74.20
2022-09-26T06:17:58.569Z,78.10
2022-09-26T06:21:05.064Z,74.50
2022-09-26T06:24:07.179Z,69.30
2022-09-26T06:27:09.328Z,72.30
2022-09-26T06:30:12.063Z,65.70
2022-09-26T06:33:13.984Z,72.80
2022-09-26T06:36:16.141Z,64.10
2022-09-26T06:39:18.082Z,69.10
2022-09-26T06:42:19.990Z,82.30
2022-09-26T06:45:21.939Z,74.30
2022-09-26T06:48:25.118Z,79.80
2022-09-26T06:51:26.896Z,62.90
2022-09-26T06:54:28.715Z,63.20
2022-09-26T06:57:40.153Z,62.70
2022-09-26T07:03:45.835Z,87.10
2022-09-26T07:06:48.146Z,71.10
2022-09-26T07:09:49.966Z,66.40
2022-09-26T07:12:53.184Z,103.20
2022-09-26T07:15:58.594Z,114.60
2022-09-26T07:19:00.378Z,107.10
2022-09-26T07:22:02.281Z,103.50
2022-09-26T07:25:05.003Z,71.90
2022-09-26T07:28:07.918Z,59.10
2022-09-26T07:31:10.039Z,58.30
2022-09-26T07:34:18.076Z,53.90
2022-09-26T07:37:20.726Z,53.30
2022-09-26T07:40:22.897Z,51.90
2022-09-26T07:43:42.744Z,50.40
2022-09-26T07:47:05.223Z,75.50
2022-09-26T07:50:14.722Z,48.40
2022-09-26T07:53:17.124Z,42.80
2022-09-26T07:56:19.144Z,43.10
2022-09-26T07:59:23.015Z,43.40
2022-09-26T08:02:29.092Z,47.70
2022-09-26T08:05:31.935Z,43.70
2022-09-26T08:08:34.959Z,44.30
2022-09-26T08:11:37.816Z,36.20
2022-09-26T08:14:39.966Z,32.10
2022-09-26T08:17:43.517Z,31.50
2022-09-26T08:20:47.596Z,40.10
2022-09-26T08:23:49.747Z,31.60
2022-09-26T08:26:55.263Z,31.60
2022-09-26T08:29:57.070Z,29.30
2022-09-26T08:33:00.743Z,27.50
2022-09-26T08:36:13.371Z,30.20
2022-09-26T08:39:16.014Z,28.90
2022-09-26T08:42:41.897Z,27.90
2022-09-26T08:46:25.425Z,28.20
2022-09-26T08:50:12.179Z,29.90
2022-09-26T08:53:17.688Z,29.90
2022-09-26T08:56:23.522Z,30.30
2022-09-26T08:59:30.428Z,30.70
2022-09-26T09:02:44.683Z,26.80
2022-09-26T09:05:54.956Z,28.60
2022-09-26T09:08:57.755Z,28.30
2022-09-26T09:12:27.942Z,30.30
2022-09-26T09:15:33.421Z,30.80
2022-09-26T09:18:44.340Z,30.10
2022-09-26T09:21:51.969Z,28.40
2022-09-26T09:25:00.985Z,28.70
2022-09-26T09:28:10.055Z,28.80
2022-09-26T09:31:13.634Z,28.60
2022-09-26T09:34:25.689Z,31.10
2022-09-26T09:37:43.287Z,30.00
2022-09-26T09:41:14.030Z,31.00
2022-09-26T09:44:56.054Z,32.40
2022-09-26T09:47:58.321Z,31.80
2022-09-26T09:51:03.110Z,34.60
2022-09-26T09:54:13.938Z,35.60
2022-09-26T09:57:44.019Z,33.10
2022-09-26T10:00:51.765Z,34.60
2022-09-26T10:04:11.579Z,31.40
2022-09-26T10:07:13.606Z,32.90
2022-09-26T10:10:21.329Z,29.80
2022-09-26T10:13:26.021Z,30.40
2022-09-26T10:16:27.997Z,30.70
2022-09-26T10:19:41.407Z,31.00
2022-09-26T10:22:45.705Z,34.70
2022-09-26T10:25:50.389Z,36.70
2022-09-26T10:28:56.910Z,33.90
2022-09-26T10:32:00.671Z,36.30
2022-09-26T10:35:08.005Z,37.90
2022-09-26T10:38:22.041Z,41.20
2022-09-26T10:41:25.475Z,40.90
2022-09-26T10:44:29.743Z,37.70
2022-09-26T10:47:33.763Z,38.60
2022-09-26T10:50:35.742Z,38.30
2022-09-26T10:53:40.264Z,40.20
2022-09-26T10:56:47.964Z,38.20
2022-09-26T10:59:50.720Z,39.70
2022-09-26T11:02:52.949Z,41.10
2022-09-26T11:05:57.803Z,39.20
2022-09-26T11:09:03.407Z,40.90
2022-09-26T11:12:29.228Z,33.00
2022-09-26T11:15:31.993Z,34.00
2022-09-26T11:18:39.799Z,33.70
2022-09-26T11:21:58.731Z,32.00
2022-09-26T11:25:19.410Z,34.50
2022-09-26T11:28:27.300Z,32.10
2022-09-26T11:31:31.009Z,36.00
2022-09-26T11:34:34.090Z,31.10
2022-09-26T11:37:51.255Z,31.60
2022-09-26T11:41:01.965Z,32.10
2022-09-26T11:44:06.991Z,31.40
2022-09-26T11:47:30.751Z,30.50
2022-09-26T11:50:44.842Z,29.10
2022-09-26T11:53:49.676Z,29.00
2022-09-26T11:57:03.491Z,27.00
2022-09-26T12:00:29.186Z,25.10
2022-09-26T12:03:33.667Z,27.30
2022-09-26T12:06:49.839Z,29.60
2022-09-26T12:09:51.593Z,28.80
2022-09-26T12:13:29.947Z,30.10
2022-09-26T12:16:36.753Z,29.50
2022-09-26T12:19:57.691Z,34.10
2022-09-26T12:23:24.414Z,27.10
2022-09-26T12:27:11.125Z,26.10
2022-09-26T12:30:20.188Z,24.80
2022-09-26T12:34:00.330Z,24.20
2022-09-26T12:37:15.529Z,25.00
2022-09-26T12:40:29.444Z,24.50
2022-09-26T12:43:54.279Z,24.00
2022-09-26T12:47:14.590Z,23.20
2022-09-26T12:50:44.032Z,23.50
2022-09-26T12:54:19.754Z,19.50
2022-09-26T12:57:54.631Z,21.60
2022-09-26T13:01:12.217Z,22.10
2022-09-26T13:04:24.935Z,20.50
2022-09-26T13:07:47.463Z,20.10
2022-09-26T13:11:05.309Z,21.00
2022-09-26T13:14:19.810Z,21.80
2022-09-26T13:17:24.706Z,20.30
2022-09-26T13:20:36.243Z,21.90
2022-09-26T13:23:48.967Z,21.00
2022-09-26T13:26:55.127Z,20.00
2022-09-26T13:30:04.024Z,22.00
2022-09-26T13:33:18.591Z,20.50
2022-09-26T13:36:22.344Z,20.30
2022-09-26T13:39:43.040Z,19.10
2022-09-26T13:42:51.178Z,21.20
2022-09-26T13:46:32.123Z,19.80
2022-09-26T13:49:55.679Z,22.10
2022-09-26T13:52:57.414Z,18.80
2022-09-26T13:56:40.158Z,17.80
2022-09-26T13:59:51.699Z,18.20
2022-09-26T14:03:16.777Z,16.80
2022-09-26T14:06:28.569Z,18.60
2022-09-26T14:12:53.672Z,17.90
2022-09-26T14:16:01.524Z,19.40
2022-09-26T14:19:04.300Z,17.40
2022-09-26T14:22:26.250Z,18.80
2022-09-26T14:25:46.592Z,18.50
2022-09-26T14:28:53.782Z,21.00
2022-09-26T14:32:05.544Z,19.70
2022-09-26T14:35:19.506Z,16.30
2022-09-26T14:38:21.765Z,23.60
2022-09-26T14:41:27.997Z,17.40
2022-09-26T14:44:34.981Z,18.30
2022-09-26T14:47:44.434Z,21.60
2022-09-26T14:51:18.768Z,19.20
2022-09-26T14:54:26.785Z,18.70
2022-09-26T14:57:31.826Z,17.60
2022-09-26T15:00:36.137Z,19.00
2022-09-26T15:03:38.419Z,19.10
2022-09-26T15:06:43.627Z,16.50
2022-09-26T15:09:55.814Z,18.60
2022-09-26T15:13:03.481Z,16.70
2022-09-26T15:16:24.275Z,18.80
2022-09-26T15:19:30.231Z,16.30
2022-09-26T15:22:32.090Z,18.10
2022-09-26T15:25:34.639Z,17.40
2022-09-26T15:28:37.866Z,19.20
2022-09-26T15:31:43.827Z,16.80
2022-09-26T15:34:46.990Z,18.00
2022-09-26T15:37:48.962Z,20.50
2022-09-26T15:41:01.994Z,18.50
2022-09-26T15:44:07.279Z,19.40
2022-09-26T15:47:44.859Z,22.00
2022-09-26T15:51:11.744Z,21.00
2022-09-26T15:54:21.761Z,20.90
2022-09-26T15:57:24.398Z,21.70
2022-09-26T16:00:26.816Z,21.60
2022-09-26T16:03:48.131Z,25.30
2022-09-26T16:07:04.452Z,30.00
2022-09-26T16:10:06.986Z,26.30
2022-09-26T16:13:24.024Z,25.00
2022-09-26T16:16:32.141Z,54.20
2022-09-26T16:19:35.740Z,33.40
2022-09-26T16:22:39.022Z,45.00
2022-09-26T16:25:48.012Z,29.20
2022-09-26T16:28:53.180Z,30.80
2022-09-26T16:31:55.663Z,28.90
2022-09-26T16:35:11.776Z,42.50
2022-09-26T16:38:32.877Z,33.70
2022-09-26T16:42:00.693Z,25.30
2022-09-26T16:45:05.470Z,25.90
2022-09-26T16:48:32.992Z,24.90
2022-09-26T16:52:14.961Z,25.00
2022-09-26T16:55:16.766Z,27.00
2022-09-26T16:58:18.731Z,33.20
2022-09-26T17:01:39.443Z,30.80
2022-09-26T17:04:41.947Z,54.80
2022-09-26T17:07:43.685Z,64.50
2022-09-26T17:10:46.388Z,54.30
2022-09-26T17:13:50.429Z,37.80
2022-09-26T17:16:55.520Z,36.30
2022-09-26T17:19:59.590Z,70.70
2022-09-26T17:23:17.137Z,106.40
2022-09-26T17:26:24.430Z,127.00
2022-09-26T17:29:30.160Z,45.40
2022-09-26T17:32:35.937Z,35.40
2022-09-26T17:35:40.363Z,31.50
2022-09-26T17:38:43.536Z,30.80
2022-09-26T17:41:45.306Z,40.70
2022-09-26T17:44:48.403Z,27.10
2022-09-26T17:47:52.108Z,28.90
2022-09-26T17:50:55.831Z,43.80
2022-09-26T17:53:57.696Z,46.50
2022-09-26T17:56:59.578Z,40.10
2022-09-26T18:00:08.913Z,45.50
2022-09-26T18:03:19.259Z,45.10
2022-09-26T18:06:25.352Z,41.60
2022-09-26T18:09:32.087Z,51.30
2022-09-26T18:12:35.078Z,39.60
2022-09-26T18:15:37.027Z,34.90
2022-09-26T18:18:39.094Z,32.60
2022-09-26T18:21:40.990Z,37.20
2022-09-26T18:24:45.142Z,32.20
2022-09-26T18:27:47.862Z,25.90
2022-09-26T18:30:57.844Z,24.20
2022-09-26T18:34:01.459Z,29.10
2022-09-26T18:37:04.269Z,44.60
2022-09-26T18:40:06.855Z,28.60
2022-09-26T18:43:13.246Z,32.40
2022-09-26T18:46:17.219Z,29.70
2022-09-26T18:49:19.219Z,32.10
2022-09-26T18:52:21.502Z,25.30
2022-09-26T18:55:44.261Z,30.40
2022-09-26T18:58:48.065Z,39.40
2022-09-26T19:01:49.922Z,37.40
2022-09-26T19:04:52.662Z,35.00
2022-09-26T19:07:54.489Z,39.10
2022-09-26T19:10:56.378Z,53.70
2022-09-26T19:14:00.687Z,68.40
2022-09-26T19:17:03.260Z,56.40
2022-09-26T19:20:05.352Z,49.70
2022-09-26T19:23:09.756Z,123.40
2022-09-26T19:26:22.947Z,163.00
2022-09-26T19:29:32.355Z,103.90
2022-09-26T19:32:38.503Z,128.90
2022-09-26T19:35:40.804Z,184.30
2022-09-26T19:38:42.935Z,137.90
2022-09-26T19:41:44.745Z,70.90
2022-09-26T19:44:46.635Z,73.90
2022-09-26T19:47:51.250Z,75.70
2022-09-26T19:50:53.102Z,107.80
2022-09-26T19:53:54.987Z,94.10
2022-09-26T19:56:57.436Z,84.80
2022-09-26T19:59:59.423Z,77.60
2022-09-26T20:03:01.455Z,98.70
2022-09-26T20:06:03.396Z,94.00
2022-09-26T20:09:06.659Z,46.80
2022-09-26T20:12:08.987Z,113.20
2022-09-26T20:15:14.593Z,132.40
2022-09-26T20:18:20.859Z,110.60
2022-09-26T20:21:29.381Z,92.40
2022-09-26T20:24:32.535Z,71.10
2022-09-26T20:27:34.386Z,53.60
2022-09-26T20:30:51.826Z,50.60
2022-09-26T20:33:54.976Z,43.80
2022-09-26T20:36:58.559Z,48.60
2022-09-26T20:40:01.219Z,36.80
2022-09-26T20:43:06.581Z,47.10
2022-09-26T20:46:09.904Z,46.40
2022-09-26T20:49:16.559Z,44.90
2022-09-26T20:52:20.943Z,42.50
2022-09-26T20:55:22.783Z,41.60
2022-09-26T20:58:24.934Z,40.50
2022-09-26T21:01:27.428Z,33.70
2022-09-26T21:04:31.614Z,36.80
2022-09-26T21:07:33.517Z,48.70
2022-09-26T21:10:35.412Z,39.90
2022-09-26T21:13:37.356Z,42.40
2022-09-26T21:16:43.109Z,43.20
2022-09-26T21:19:45.058Z,59.00
2022-09-26T21:22:47.004Z,56.70
2022-09-26T21:25:49.059Z,63.50
2022-09-26T21:28:52.155Z,63.50
2022-09-26T21:31:56.360Z,90.00
2022-09-26T21:35:03.255Z,64.20
2022-09-26T21:38:05.578Z,80.60
2022-09-26T21:41:09.479Z,96.30
2022-09-26T21:44:18.315Z,114.60
2022-09-26T21:47:20.086Z,86.20
2022-09-26T21:50:22.336Z,71.00
2022-09-26T21:53:45.848Z,100.50
2022-09-26T21:56:53.377Z,94.80
2022-09-26T21:59:56.229Z,92.50
2022-09-26T22:02:59.662Z,91.40
2022-09-26T22:06:07.480Z,90.10
2022-09-26T22:09:09.855Z,70.50
2022-09-26T22:12:11.700Z,90.30
2022-09-26T22:15:13.463Z,107.50
2022-09-26T22:18:15.322Z,125.00
2022-09-26T22:21:17.107Z,106.30
2022-09-26T22:24:19.224Z,105.90
2022-09-26T22:27:21.400Z,99.30
2022-09-26T22:30:23.362Z,81.60
2022-09-26T22:33:25.326Z,70.40
2022-09-26T22:36:27.419Z,76.60
2022-09-26T22:39:29.327Z,68.60
2022-09-26T22:42:31.160Z,58.70
2022-09-26T22:45:36.138Z,53.00
2022-09-26T22:48:40.449Z,71.80
2022-09-26T22:51:42.303Z,62.50
2022-09-26T22:54:44.086Z,61.10
2022-09-26T22:57:46.283Z,65.20
2022-09-26T23:00:48.482Z,60.60
2022-09-26T23:03:53.033Z,65.50
2022-09-26T23:07:16.779Z,49.90
2022-09-26T23:10:33.595Z,53.10
2022-09-26T23:13:35.716Z,60.30
2022-09-26T23:16:38.697Z,51.20
2022-09-26T23:19:41.447Z,57.90
2022-09-26T23:22:43.367Z,57.80
2022-09-26T23:25:47.524Z,66.70
2022-09-26T23:28:50.556Z,58.50
2022-09-26T23:31:52.479Z,64.80
2022-09-26T23:34:54.386Z,60.50
2022-09-26T23:37:56.545Z,48.30
2022-09-26T23:40:58.445Z,41.40
2022-09-26T23:44:00.320Z,50.00
2022-09-26T23:47:05.366Z,42.80
2022-09-26T23:50:08.215Z,47.10
2022-09-26T23:53:10.889Z,58.20
2022-09-26T23:56:14.307Z,67.20
2022-09-26T23:59:16.221Z,54.80
